sensor_id;sensor_type;location;lat;lon;timestamp;P1;durP1;ratioP1;P2;durP2;ratioP2
10721;SDS011;5412;59.450;18.124;2023-10-31T00:01:21;10.15;;;3.03;;
10721;SDS011;5412;59.450;18.124;2023-10-31T00:03:47;8.55;;;3.17;;
10721;SDS011;5412;59.450;18.124;2023-10-31T00:06:13;8.77;;;3.55;;
10721;SDS011;5412;59.450;18.124;2023-10-31T00:08:38;8.60;;;3.35;;
10721;SDS011;5412;59.450;18.124;2023-10-31T00:11:04;7.05;;;3.63;;
10721;SDS011;5412;59.450;18.124;2023-10-31T00:13:30;19.65;;;4.30;;
10721;SDS011;5412;59.450;18.124;2023-10-31T00:15:56;8.07;;;3.20;;
10721;SDS011;5412;59.450;18.124;2023-10-31T00:18:22;5.50;;;3.00;;
10721;SDS011;5412;59.450;18.124;2023-10-31T00:20:48;10.07;;;4.07;;
10721;SDS011;5412;59.450;18.124;2023-10-31T00:23:14;11.60;;;3.53;;
10721;SDS011;5412;59.450;18.124;2023-10-31T00:25:40;13.75;;;3.50;;
10721;SDS011;5412;59.450;18.124;2023-10-31T00:28:06;9.25;;;3.35;;
10721;SDS011;5412;59.450;18.124;2023-10-31T00:30:32;9.07;;;3.20;;
10721;SDS011;5412;59.450;18.124;2023-10-31T00:32:58;11.70;;;3.38;;
10721;SDS011;5412;59.450;18.124;2023-10-31T00:35:23;8.30;;;3.17;;
10721;SDS011;5412;59.450;18.124;2023-10-31T00:37:49;5.53;;;2.67;;
10721;SDS011;5412;59.450;18.124;2023-10-31T00:40:15;9.43;;;2.83;;
10721;SDS011;5412;59.450;18.124;2023-10-31T00:42:41;8.98;;;3.45;;
10721;SDS011;5412;59.450;18.124;2023-10-31T00:45:07;9.23;;;3.20;;
10721;SDS011;5412;59.450;18.124;2023-10-31T00:47:34;8.18;;;2.97;;
10721;SDS011;5412;59.450;18.124;2023-10-31T00:50:00;7.88;;;3.05;;
10721;SDS011;5412;59.450;18.124;2023-10-31T00:52:25;10.50;;;3.75;;
10721;SDS011;5412;59.450;18.124;2023-10-31T00:54:51;8.75;;;2.78;;
10721;SDS011;5412;59.450;18.124;2023-10-31T00:57:17;8.23;;;2.90;;
10721;SDS011;5412;59.450;18.124;2023-10-31T00:59:43;8.32;;;3.22;;
10721;SDS011;5412;59.450;18.124;2023-10-31T01:02:08;9.52;;;3.00;;
10721;SDS011;5412;59.450;18.124;2023-10-31T01:04:35;12.18;;;3.28;;
10721;SDS011;5412;59.450;18.124;2023-10-31T01:07:02;6.70;;;2.28;;
10721;SDS011;5412;59.450;18.124;2023-10-31T01:09:27;6.55;;;2.15;;
10721;SDS011;5412;59.450;18.124;2023-10-31T01:11:53;7.30;;;2.33;;
10721;SDS011;5412;59.450;18.124;2023-10-31T01:14:19;7.63;;;2.38;;
10721;SDS011;5412;59.450;18.124;2023-10-31T01:16:45;6.72;;;2.67;;
10721;SDS011;5412;59.450;18.124;2023-10-31T01:19:11;7.30;;;2.47;;
10721;SDS011;5412;59.450;18.124;2023-10-31T01:21:36;6.40;;;1.95;;
10721;SDS011;5412;59.450;18.124;2023-10-31T01:24:02;5.38;;;2.08;;
10721;SDS011;5412;59.450;18.124;2023-10-31T01:26:28;8.07;;;2.25;;
10721;SDS011;5412;59.450;18.124;2023-10-31T01:28:54;12.15;;;2.35;;
10721;SDS011;5412;59.450;18.124;2023-10-31T01:31:20;8.15;;;2.33;;
10721;SDS011;5412;59.450;18.124;2023-10-31T01:33:46;8.50;;;2.78;;
10721;SDS011;5412;59.450;18.124;2023-10-31T01:36:11;7.35;;;2.08;;
10721;SDS011;5412;59.450;18.124;2023-10-31T01:38:37;9.10;;;2.50;;
10721;SDS011;5412;59.450;18.124;2023-10-31T01:41:04;6.20;;;1.98;;
10721;SDS011;5412;59.450;18.124;2023-10-31T01:43:31;5.28;;;2.20;;
10721;SDS011;5412;59.450;18.124;2023-10-31T01:46:00;11.45;;;2.28;;
10721;SDS011;5412;59.450;18.124;2023-10-31T01:48:27;8.52;;;3.28;;
10721;SDS011;5412;59.450;18.124;2023-10-31T01:50:58;13.65;;;4.13;;
10721;SDS011;5412;59.450;18.124;2023-10-31T01:53:25;7.85;;;3.65;;
10721;SDS011;5412;59.450;18.124;2023-10-31T01:55:53;12.75;;;3.58;;
10721;SDS011;5412;59.450;18.124;2023-10-31T01:58:21;8.90;;;2.70;;
10721;SDS011;5412;59.450;18.124;2023-10-31T02:00:54;5.78;;;2.22;;
10721;SDS011;5412;59.450;18.124;2023-10-31T02:03:20;8.68;;;2.28;;
10721;SDS011;5412;59.450;18.124;2023-10-31T02:05:46;10.25;;;2.58;;
10721;SDS011;5412;59.450;18.124;2023-10-31T02:08:12;7.35;;;2.72;;
10721;SDS011;5412;59.450;18.124;2023-10-31T02:10:38;5.15;;;2.10;;
10721;SDS011;5412;59.450;18.124;2023-10-31T02:13:14;10.40;;;2.75;;
10721;SDS011;5412;59.450;18.124;2023-10-31T02:15:41;13.93;;;2.50;;
10721;SDS011;5412;59.450;18.124;2023-10-31T02:18:07;7.18;;;2.38;;
10721;SDS011;5412;59.450;18.124;2023-10-31T02:20:33;5.03;;;2.20;;
10721;SDS011;5412;59.450;18.124;2023-10-31T02:22:59;7.85;;;2.28;;
10721;SDS011;5412;59.450;18.124;2023-10-31T02:25:25;8.57;;;2.72;;
10721;SDS011;5412;59.450;18.124;2023-10-31T02:27:51;8.10;;;3.20;;
10721;SDS011;5412;59.450;18.124;2023-10-31T02:30:17;8.75;;;2.47;;
10721;SDS011;5412;59.450;18.124;2023-10-31T02:32:42;6.28;;;2.40;;
10721;SDS011;5412;59.450;18.124;2023-10-31T02:35:08;6.75;;;2.20;;
10721;SDS011;5412;59.450;18.124;2023-10-31T02:37:34;10.32;;;2.60;;
10721;SDS011;5412;59.450;18.124;2023-10-31T02:40:00;7.25;;;2.47;;
10721;SDS011;5412;59.450;18.124;2023-10-31T02:42:26;6.10;;;2.38;;
10721;SDS011;5412;59.450;18.124;2023-10-31T02:44:52;7.65;;;2.10;;
10721;SDS011;5412;59.450;18.124;2023-10-31T02:47:18;8.88;;;2.50;;
10721;SDS011;5412;59.450;18.124;2023-10-31T02:49:44;6.30;;;2.55;;
10721;SDS011;5412;59.450;18.124;2023-10-31T02:52:10;8.82;;;2.55;;
10721;SDS011;5412;59.450;18.124;2023-10-31T02:54:35;11.88;;;2.45;;
10721;SDS011;5412;59.450;18.124;2023-10-31T02:57:01;5.82;;;2.35;;
10721;SDS011;5412;59.450;18.124;2023-10-31T02:59:27;8.55;;;2.50;;
10721;SDS011;5412;59.450;18.124;2023-10-31T03:01:53;6.47;;;2.65;;
10721;SDS011;5412;59.450;18.124;2023-10-31T03:04:21;7.03;;;2.33;;
10721;SDS011;5412;59.450;18.124;2023-10-31T03:06:46;7.78;;;2.67;;
10721;SDS011;5412;59.450;18.124;2023-10-31T03:09:12;8.40;;;3.15;;
10721;SDS011;5412;59.450;18.124;2023-10-31T03:11:38;7.70;;;2.55;;
10721;SDS011;5412;59.450;18.124;2023-10-31T03:14:03;7.72;;;2.47;;
10721;SDS011;5412;59.450;18.124;2023-10-31T03:16:29;9.98;;;3.17;;
10721;SDS011;5412;59.450;18.124;2023-10-31T03:18:55;7.65;;;2.67;;
10721;SDS011;5412;59.450;18.124;2023-10-31T03:21:21;11.98;;;2.70;;
10721;SDS011;5412;59.450;18.124;2023-10-31T03:23:48;7.32;;;2.30;;
10721;SDS011;5412;59.450;18.124;2023-10-31T03:26:14;9.48;;;2.42;;
10721;SDS011;5412;59.450;18.124;2023-10-31T03:28:40;10.68;;;3.00;;
10721;SDS011;5412;59.450;18.124;2023-10-31T03:31:07;7.78;;;2.60;;
10721;SDS011;5412;59.450;18.124;2023-10-31T03:33:34;9.95;;;2.78;;
10721;SDS011;5412;59.450;18.124;2023-10-31T03:36:00;6.85;;;2.90;;
10721;SDS011;5412;59.450;18.124;2023-10-31T03:38:25;7.03;;;2.92;;
10721;SDS011;5412;59.450;18.124;2023-10-31T03:40:51;8.52;;;2.63;;
10721;SDS011;5412;59.450;18.124;2023-10-31T03:43:17;9.93;;;3.00;;
10721;SDS011;5412;59.450;18.124;2023-10-31T03:45:43;9.30;;;2.40;;
10721;SDS011;5412;59.450;18.124;2023-10-31T03:48:10;9.65;;;2.40;;
10721;SDS011;5412;59.450;18.124;2023-10-31T03:50:36;7.07;;;2.85;;
10721;SDS011;5412;59.450;18.124;2023-10-31T03:53:01;6.00;;;2.33;;
10721;SDS011;5412;59.450;18.124;2023-10-31T03:55:27;10.02;;;2.53;;
10721;SDS011;5412;59.450;18.124;2023-10-31T03:57:53;10.18;;;2.53;;
10721;SDS011;5412;59.450;18.124;2023-10-31T04:00:19;6.32;;;2.90;;
10721;SDS011;5412;59.450;18.124;2023-10-31T04:02:44;14.25;;;3.22;;
10721;SDS011;5412;59.450;18.124;2023-10-31T04:05:10;5.45;;;2.75;;
10721;SDS011;5412;59.450;18.124;2023-10-31T04:07:36;8.07;;;2.55;;
10721;SDS011;5412;59.450;18.124;2023-10-31T04:10:03;5.18;;;2.70;;
10721;SDS011;5412;59.450;18.124;2023-10-31T04:12:29;12.05;;;3.13;;
10721;SDS011;5412;59.450;18.124;2023-10-31T04:14:55;11.00;;;3.10;;
10721;SDS011;5412;59.450;18.124;2023-10-31T04:17:20;9.75;;;2.72;;
10721;SDS011;5412;59.450;18.124;2023-10-31T04:19:47;12.00;;;2.97;;
10721;SDS011;5412;59.450;18.124;2023-10-31T04:22:12;10.20;;;3.55;;
10721;SDS011;5412;59.450;18.124;2023-10-31T04:24:38;11.82;;;2.85;;
10721;SDS011;5412;59.450;18.124;2023-10-31T04:27:04;12.55;;;3.00;;
10721;SDS011;5412;59.450;18.124;2023-10-31T04:29:29;8.02;;;3.00;;
10721;SDS011;5412;59.450;18.124;2023-10-31T04:31:55;6.13;;;2.90;;
10721;SDS011;5412;59.450;18.124;2023-10-31T04:34:21;12.65;;;3.20;;
10721;SDS011;5412;59.450;18.124;2023-10-31T04:36:46;5.57;;;2.78;;
10721;SDS011;5412;59.450;18.124;2023-10-31T04:39:12;12.27;;;3.38;;
10721;SDS011;5412;59.450;18.124;2023-10-31T04:41:38;10.52;;;3.20;;
10721;SDS011;5412;59.450;18.124;2023-10-31T04:44:04;8.30;;;3.10;;
10721;SDS011;5412;59.450;18.124;2023-10-31T04:46:30;8.95;;;2.78;;
10721;SDS011;5412;59.450;18.124;2023-10-31T04:48:55;12.48;;;3.50;;
10721;SDS011;5412;59.450;18.124;2023-10-31T04:51:21;12.07;;;3.60;;
10721;SDS011;5412;59.450;18.124;2023-10-31T04:53:47;6.35;;;2.95;;
10721;SDS011;5412;59.450;18.124;2023-10-31T04:56:13;7.95;;;3.28;;
10721;SDS011;5412;59.450;18.124;2023-10-31T04:58:40;12.82;;;3.63;;
10721;SDS011;5412;59.450;18.124;2023-10-31T05:01:09;5.90;;;2.60;;
10721;SDS011;5412;59.450;18.124;2023-10-31T05:03:36;7.82;;;2.78;;
10721;SDS011;5412;59.450;18.124;2023-10-31T05:06:02;9.95;;;3.00;;
10721;SDS011;5412;59.450;18.124;2023-10-31T05:08:28;12.05;;;3.33;;
10721;SDS011;5412;59.450;18.124;2023-10-31T05:10:55;11.73;;;3.10;;
10721;SDS011;5412;59.450;18.124;2023-10-31T05:13:21;7.78;;;2.38;;
10721;SDS011;5412;59.450;18.124;2023-10-31T05:15:46;18.50;;;3.85;;
10721;SDS011;5412;59.450;18.124;2023-10-31T05:18:12;13.35;;;3.42;;
10721;SDS011;5412;59.450;18.124;2023-10-31T05:20:38;8.77;;;3.08;;
10721;SDS011;5412;59.450;18.124;2023-10-31T05:23:03;9.05;;;2.92;;
10721;SDS011;5412;59.450;18.124;2023-10-31T05:25:29;11.80;;;2.85;;
10721;SDS011;5412;59.450;18.124;2023-10-31T05:27:55;10.77;;;3.05;;
10721;SDS011;5412;59.450;18.124;2023-10-31T05:30:21;10.95;;;3.15;;
10721;SDS011;5412;59.450;18.124;2023-10-31T05:32:46;10.25;;;3.65;;
10721;SDS011;5412;59.450;18.124;2023-10-31T05:35:12;10.55;;;3.53;;
10721;SDS011;5412;59.450;18.124;2023-10-31T05:37:38;10.23;;;3.88;;
10721;SDS011;5412;59.450;18.124;2023-10-31T05:40:04;9.13;;;3.35;;
10721;SDS011;5412;59.450;18.124;2023-10-31T05:42:30;8.68;;;3.08;;
10721;SDS011;5412;59.450;18.124;2023-10-31T05:44:56;7.30;;;3.10;;
10721;SDS011;5412;59.450;18.124;2023-10-31T05:47:22;8.75;;;3.03;;
10721;SDS011;5412;59.450;18.124;2023-10-31T05:49:48;7.72;;;3.08;;
10721;SDS011;5412;59.450;18.124;2023-10-31T05:52:14;11.63;;;3.63;;
10721;SDS011;5412;59.450;18.124;2023-10-31T05:54:40;9.20;;;3.47;;
10721;SDS011;5412;59.450;18.124;2023-10-31T05:57:05;7.05;;;3.17;;
10721;SDS011;5412;59.450;18.124;2023-10-31T05:59:31;8.38;;;3.42;;
10721;SDS011;5412;59.450;18.124;2023-10-31T06:01:57;7.68;;;2.72;;
10721;SDS011;5412;59.450;18.124;2023-10-31T06:04:23;3.95;;;2.00;;
10721;SDS011;5412;59.450;18.124;2023-10-31T06:06:52;6.10;;;2.10;;
10721;SDS011;5412;59.450;18.124;2023-10-31T06:09:18;8.80;;;2.40;;
10721;SDS011;5412;59.450;18.124;2023-10-31T06:11:43;2.60;;;1.80;;
10721;SDS011;5412;59.450;18.124;2023-10-31T06:14:10;5.88;;;2.10;;
10721;SDS011;5412;59.450;18.124;2023-10-31T06:16:42;3.38;;;1.80;;
10721;SDS011;5412;59.450;18.124;2023-10-31T06:19:08;4.07;;;1.73;;
10721;SDS011;5412;59.450;18.124;2023-10-31T06:21:35;7.47;;;1.90;;
10721;SDS011;5412;59.450;18.124;2023-10-31T06:24:01;4.75;;;1.88;;
10721;SDS011;5412;59.450;18.124;2023-10-31T06:26:29;2.78;;;1.52;;
10721;SDS011;5412;59.450;18.124;2023-10-31T06:28:54;3.58;;;1.73;;
10721;SDS011;5412;59.450;18.124;2023-10-31T06:31:20;3.65;;;1.65;;
10721;SDS011;5412;59.450;18.124;2023-10-31T06:33:46;4.15;;;1.40;;
10721;SDS011;5412;59.450;18.124;2023-10-31T06:36:12;3.35;;;1.30;;
10721;SDS011;5412;59.450;18.124;2023-10-31T06:38:37;3.70;;;1.50;;
10721;SDS011;5412;59.450;18.124;2023-10-31T06:41:03;3.28;;;1.38;;
10721;SDS011;5412;59.450;18.124;2023-10-31T06:43:29;1.45;;;1.30;;
10721;SDS011;5412;59.450;18.124;2023-10-31T06:45:55;3.55;;;1.63;;
10721;SDS011;5412;59.450;18.124;2023-10-31T06:48:22;2.35;;;1.20;;
10721;SDS011;5412;59.450;18.124;2023-10-31T06:50:48;3.58;;;1.30;;
10721;SDS011;5412;59.450;18.124;2023-10-31T06:53:14;4.65;;;1.40;;
10721;SDS011;5412;59.450;18.124;2023-10-31T06:55:40;3.22;;;1.80;;
10721;SDS011;5412;59.450;18.124;2023-10-31T06:58:06;3.45;;;1.50;;
10721;SDS011;5412;59.450;18.124;2023-10-31T07:00:31;1.85;;;1.42;;
10721;SDS011;5412;59.450;18.124;2023-10-31T07:02:57;4.30;;;1.65;;
10721;SDS011;5412;59.450;18.124;2023-10-31T07:05:24;2.55;;;1.52;;
10721;SDS011;5412;59.450;18.124;2023-10-31T07:07:50;3.25;;;1.67;;
10721;SDS011;5412;59.450;18.124;2023-10-31T07:10:15;3.72;;;2.10;;
10721;SDS011;5412;59.450;18.124;2023-10-31T07:12:41;5.22;;;2.35;;
10721;SDS011;5412;59.450;18.124;2023-10-31T07:15:07;11.68;;;3.10;;
10721;SDS011;5412;59.450;18.124;2023-10-31T07:17:33;37.88;;;3.90;;
10721;SDS011;5412;59.450;18.124;2023-10-31T07:19:59;29.02;;;3.95;;
10721;SDS011;5412;59.450;18.124;2023-10-31T07:22:25;33.88;;;4.15;;
10721;SDS011;5412;59.450;18.124;2023-10-31T07:24:51;48.63;;;4.57;;
10721;SDS011;5412;59.450;18.124;2023-10-31T07:27:17;100.78;;;8.32;;
10721;SDS011;5412;59.450;18.124;2023-10-31T07:29:43;61.60;;;5.55;;
10721;SDS011;5412;59.450;18.124;2023-10-31T07:32:09;67.85;;;5.68;;
10721;SDS011;5412;59.450;18.124;2023-10-31T07:34:35;24.70;;;5.05;;
10721;SDS011;5412;59.450;18.124;2023-10-31T07:37:01;9.77;;;3.58;;
10721;SDS011;5412;59.450;18.124;2023-10-31T07:39:27;4.57;;;3.60;;
10721;SDS011;5412;59.450;18.124;2023-10-31T07:41:52;6.38;;;3.92;;
10721;SDS011;5412;59.450;18.124;2023-10-31T07:44:18;16.58;;;3.75;;
10721;SDS011;5412;59.450;18.124;2023-10-31T07:46:44;8.88;;;3.70;;
10721;SDS011;5412;59.450;18.124;2023-10-31T07:49:10;8.98;;;3.75;;
10721;SDS011;5412;59.450;18.124;2023-10-31T07:51:35;8.45;;;3.53;;
10721;SDS011;5412;59.450;18.124;2023-10-31T07:54:01;6.85;;;4.07;;
10721;SDS011;5412;59.450;18.124;2023-10-31T07:56:27;7.40;;;3.40;;
10721;SDS011;5412;59.450;18.124;2023-10-31T07:58:53;6.63;;;3.90;;
10721;SDS011;5412;59.450;18.124;2023-10-31T08:01:20;6.25;;;3.10;;
10721;SDS011;5412;59.450;18.124;2023-10-31T08:03:46;4.15;;;3.47;;
10721;SDS011;5412;59.450;18.124;2023-10-31T08:06:13;5.07;;;2.90;;
10721;SDS011;5412;59.450;18.124;2023-10-31T08:08:39;4.72;;;3.60;;
10721;SDS011;5412;59.450;18.124;2023-10-31T08:11:08;3.20;;;2.78;;
10721;SDS011;5412;59.450;18.124;2023-10-31T08:13:35;3.97;;;3.15;;
10721;SDS011;5412;59.450;18.124;2023-10-31T08:16:02;4.20;;;3.00;;
10721;SDS011;5412;59.450;18.124;2023-10-31T08:18:29;3.83;;;2.90;;
10721;SDS011;5412;59.450;18.124;2023-10-31T08:20:55;2.92;;;2.55;;
10721;SDS011;5412;59.450;18.124;2023-10-31T08:23:20;3.08;;;2.50;;
10721;SDS011;5412;59.450;18.124;2023-10-31T08:25:46;5.32;;;2.42;;
10721;SDS011;5412;59.450;18.124;2023-10-31T08:28:12;6.15;;;2.95;;
10721;SDS011;5412;59.450;18.124;2023-10-31T08:30:38;4.07;;;2.20;;
10721;SDS011;5412;59.450;18.124;2023-10-31T08:33:04;2.30;;;2.10;;
10721;SDS011;5412;59.450;18.124;2023-10-31T08:35:30;2.33;;;2.13;;
10721;SDS011;5412;59.450;18.124;2023-10-31T08:37:56;2.30;;;1.75;;
10721;SDS011;5412;59.450;18.124;2023-10-31T08:40:22;3.70;;;1.70;;
10721;SDS011;5412;59.450;18.124;2023-10-31T08:42:48;2.30;;;1.65;;
10721;SDS011;5412;59.450;18.124;2023-10-31T08:45:14;2.70;;;2.17;;
10721;SDS011;5412;59.450;18.124;2023-10-31T08:47:40;1.85;;;1.60;;
10721;SDS011;5412;59.450;18.124;2023-10-31T08:50:06;6.07;;;1.85;;
10721;SDS011;5412;59.450;18.124;2023-10-31T08:52:36;3.67;;;1.85;;
10721;SDS011;5412;59.450;18.124;2023-10-31T08:55:02;2.60;;;2.05;;
10721;SDS011;5412;59.450;18.124;2023-10-31T08:57:29;1.85;;;1.70;;
10721;SDS011;5412;59.450;18.124;2023-10-31T08:59:55;1.77;;;1.67;;
10721;SDS011;5412;59.450;18.124;2023-10-31T09:02:21;1.70;;;1.60;;
10721;SDS011;5412;59.450;18.124;2023-10-31T09:04:46;4.05;;;2.28;;
10721;SDS011;5412;59.450;18.124;2023-10-31T09:07:13;3.60;;;1.83;;
10721;SDS011;5412;59.450;18.124;2023-10-31T09:09:39;2.03;;;1.55;;
10721;SDS011;5412;59.450;18.124;2023-10-31T09:12:05;3.20;;;1.80;;
10721;SDS011;5412;59.450;18.124;2023-10-31T09:14:31;1.50;;;1.27;;
10721;SDS011;5412;59.450;18.124;2023-10-31T09:16:56;4.68;;;1.88;;
10721;SDS011;5412;59.450;18.124;2023-10-31T09:19:22;1.77;;;1.30;;
10721;SDS011;5412;59.450;18.124;2023-10-31T09:21:48;1.45;;;1.20;;
10721;SDS011;5412;59.450;18.124;2023-10-31T09:24:14;2.72;;;1.40;;
10721;SDS011;5412;59.450;18.124;2023-10-31T09:26:42;1.52;;;1.30;;
10721;SDS011;5412;59.450;18.124;2023-10-31T09:29:09;1.38;;;1.25;;
10721;SDS011;5412;59.450;18.124;2023-10-31T09:31:36;2.65;;;1.27;;
10721;SDS011;5412;59.450;18.124;2023-10-31T09:34:01;1.20;;;1.00;;
10721;SDS011;5412;59.450;18.124;2023-10-31T09:36:28;1.40;;;1.13;;
10721;SDS011;5412;59.450;18.124;2023-10-31T09:38:59;2.63;;;1.40;;
10721;SDS011;5412;59.450;18.124;2023-10-31T09:41:25;2.83;;;1.10;;
10721;SDS011;5412;59.450;18.124;2023-10-31T09:43:52;1.10;;;1.00;;
10721;SDS011;5412;59.450;18.124;2023-10-31T09:46:18;3.42;;;1.00;;
10721;SDS011;5412;59.450;18.124;2023-10-31T09:48:46;7.32;;;1.05;;
10721;SDS011;5412;59.450;18.124;2023-10-31T09:51:12;1.13;;;0.82;;
10721;SDS011;5412;59.450;18.124;2023-10-31T09:53:38;0.82;;;0.80;;
10721;SDS011;5412;59.450;18.124;2023-10-31T09:56:07;0.60;;;0.60;;
10721;SDS011;5412;59.450;18.124;2023-10-31T09:58:33;1.02;;;0.90;;
10721;SDS011;5412;59.450;18.124;2023-10-31T10:00:59;7.47;;;1.10;;
10721;SDS011;5412;59.450;18.124;2023-10-31T10:03:25;0.60;;;0.60;;
10721;SDS011;5412;59.450;18.124;2023-10-31T10:05:52;1.95;;;0.88;;
10721;SDS011;5412;59.450;18.124;2023-10-31T10:08:19;3.67;;;0.90;;
10721;SDS011;5412;59.450;18.124;2023-10-31T10:10:45;1.38;;;0.90;;
10721;SDS011;5412;59.450;18.124;2023-10-31T10:13:12;0.80;;;0.80;;
10721;SDS011;5412;59.450;18.124;2023-10-31T10:15:47;1.13;;;0.75;;
10721;SDS011;5412;59.450;18.124;2023-10-31T10:18:26;0.85;;;0.70;;
10721;SDS011;5412;59.450;18.124;2023-10-31T10:21:06;0.90;;;0.80;;
10721;SDS011;5412;59.450;18.124;2023-10-31T10:23:33;2.55;;;0.90;;
10721;SDS011;5412;59.450;18.124;2023-10-31T10:25:59;2.72;;;0.90;;
10721;SDS011;5412;59.450;18.124;2023-10-31T10:28:26;0.57;;;0.57;;
10721;SDS011;5412;59.450;18.124;2023-10-31T10:30:54;0.77;;;0.77;;
10721;SDS011;5412;59.450;18.124;2023-10-31T10:33:20;0.80;;;0.80;;
10721;SDS011;5412;59.450;18.124;2023-10-31T10:35:46;0.60;;;0.60;;
10721;SDS011;5412;59.450;18.124;2023-10-31T10:38:13;1.83;;;0.80;;
10721;SDS011;5412;59.450;18.124;2023-10-31T10:40:41;0.60;;;0.60;;
10721;SDS011;5412;59.450;18.124;2023-10-31T10:43:24;0.80;;;0.80;;
10721;SDS011;5412;59.450;18.124;2023-10-31T10:45:53;0.60;;;0.60;;
10721;SDS011;5412;59.450;18.124;2023-10-31T10:48:23;2.22;;;0.68;;
10721;SDS011;5412;59.450;18.124;2023-10-31T10:50:52;0.80;;;0.80;;
10721;SDS011;5412;59.450;18.124;2023-10-31T10:53:25;0.88;;;0.88;;
10721;SDS011;5412;59.450;18.124;2023-10-31T10:55:59;0.82;;;0.80;;
10721;SDS011;5412;59.450;18.124;2023-10-31T10:58:37;0.70;;;0.70;;
10721;SDS011;5412;59.450;18.124;2023-10-31T11:01:20;1.98;;;0.80;;
10721;SDS011;5412;59.450;18.124;2023-10-31T11:03:47;0.88;;;0.88;;
10721;SDS011;5412;59.450;18.124;2023-10-31T11:06:14;0.73;;;0.73;;
10721;SDS011;5412;59.450;18.124;2023-10-31T11:08:40;0.82;;;0.82;;
10721;SDS011;5412;59.450;18.124;2023-10-31T11:11:07;0.90;;;0.90;;
10721;SDS011;5412;59.450;18.124;2023-10-31T11:13:34;1.00;;;0.90;;
10721;SDS011;5412;59.450;18.124;2023-10-31T11:16:02;0.88;;;0.88;;
10721;SDS011;5412;59.450;18.124;2023-10-31T11:18:34;1.30;;;1.17;;
10721;SDS011;5412;59.450;18.124;2023-10-31T11:21:01;0.97;;;0.97;;
10721;SDS011;5412;59.450;18.124;2023-10-31T11:23:27;1.50;;;0.93;;
10721;SDS011;5412;59.450;18.124;2023-10-31T11:25:53;0.93;;;0.93;;
10721;SDS011;5412;59.450;18.124;2023-10-31T11:28:20;0.90;;;0.90;;
10721;SDS011;5412;59.450;18.124;2023-10-31T11:30:49;0.73;;;0.73;;
10721;SDS011;5412;59.450;18.124;2023-10-31T11:33:16;0.90;;;0.90;;
10721;SDS011;5412;59.450;18.124;2023-10-31T11:35:49;1.15;;;0.80;;
10721;SDS011;5412;59.450;18.124;2023-10-31T11:38:16;0.75;;;0.70;;
10721;SDS011;5412;59.450;18.124;2023-10-31T11:43:24;0.50;;;0.50;;
10721;SDS011;5412;59.450;18.124;2023-10-31T11:45:50;0.60;;;0.60;;
10721;SDS011;5412;59.450;18.124;2023-10-31T11:48:17;0.73;;;0.70;;
10721;SDS011;5412;59.450;18.124;2023-10-31T11:51:02;0.50;;;0.50;;
10721;SDS011;5412;59.450;18.124;2023-10-31T11:53:28;0.70;;;0.70;;
10721;SDS011;5412;59.450;18.124;2023-10-31T11:55:55;0.90;;;0.70;;
10721;SDS011;5412;59.450;18.124;2023-10-31T11:58:22;0.90;;;0.90;;
10721;SDS011;5412;59.450;18.124;2023-10-31T12:01:00;1.05;;;0.60;;
10721;SDS011;5412;59.450;18.124;2023-10-31T12:03:28;0.93;;;0.80;;
10721;SDS011;5412;59.450;18.124;2023-10-31T12:06:14;1.90;;;0.77;;
10721;SDS011;5412;59.450;18.124;2023-10-31T12:08:41;1.03;;;0.90;;
10721;SDS011;5412;59.450;18.124;2023-10-31T12:11:11;3.08;;;0.98;;
10721;SDS011;5412;59.450;18.124;2023-10-31T12:13:39;2.05;;;1.00;;
10721;SDS011;5412;59.450;18.124;2023-10-31T12:16:07;0.80;;;0.75;;
10721;SDS011;5412;59.450;18.124;2023-10-31T12:18:34;1.20;;;0.90;;
10721;SDS011;5412;59.450;18.124;2023-10-31T12:21:01;1.60;;;0.90;;
10721;SDS011;5412;59.450;18.124;2023-10-31T12:23:28;1.23;;;0.90;;
10721;SDS011;5412;59.450;18.124;2023-10-31T12:25:54;1.20;;;1.05;;
10721;SDS011;5412;59.450;18.124;2023-10-31T12:28:20;1.05;;;0.85;;
10721;SDS011;5412;59.450;18.124;2023-10-31T12:30:47;2.85;;;0.90;;
10721;SDS011;5412;59.450;18.124;2023-10-31T12:33:14;1.13;;;1.02;;
10721;SDS011;5412;59.450;18.124;2023-10-31T12:35:41;1.17;;;1.07;;
10721;SDS011;5412;59.450;18.124;2023-10-31T12:38:11;2.97;;;1.07;;
10721;SDS011;5412;59.450;18.124;2023-10-31T12:40:38;0.90;;;0.90;;
10721;SDS011;5412;59.450;18.124;2023-10-31T12:43:07;1.63;;;1.20;;
10721;SDS011;5412;59.450;18.124;2023-10-31T12:45:34;1.63;;;0.93;;
10721;SDS011;5412;59.450;18.124;2023-10-31T12:48:04;1.17;;;1.10;;
10721;SDS011;5412;59.450;18.124;2023-10-31T12:50:32;0.80;;;0.80;;
10721;SDS011;5412;59.450;18.124;2023-10-31T12:52:58;1.20;;;1.10;;
10721;SDS011;5412;59.450;18.124;2023-10-31T12:55:25;1.73;;;1.10;;
10721;SDS011;5412;59.450;18.124;2023-10-31T12:57:53;1.33;;;0.85;;
10721;SDS011;5412;59.450;18.124;2023-10-31T13:00:20;0.90;;;0.90;;
10721;SDS011;5412;59.450;18.124;2023-10-31T13:02:58;0.80;;;0.80;;
10721;SDS011;5412;59.450;18.124;2023-10-31T13:05:26;0.80;;;0.80;;
10721;SDS011;5412;59.450;18.124;2023-10-31T13:07:53;1.75;;;1.13;;
10721;SDS011;5412;59.450;18.124;2023-10-31T13:10:21;0.98;;;0.85;;
10721;SDS011;5412;59.450;18.124;2023-10-31T13:12:48;2.10;;;1.00;;
10721;SDS011;5412;59.450;18.124;2023-10-31T13:15:22;0.98;;;0.93;;
10721;SDS011;5412;59.450;18.124;2023-10-31T13:17:51;1.00;;;0.90;;
10721;SDS011;5412;59.450;18.124;2023-10-31T13:20:18;1.55;;;0.57;;
10721;SDS011;5412;59.450;18.124;2023-10-31T13:22:45;0.68;;;0.63;;
10721;SDS011;5412;59.450;18.124;2023-10-31T13:25:12;3.50;;;0.80;;
10721;SDS011;5412;59.450;18.124;2023-10-31T13:27:42;0.47;;;0.47;;
10721;SDS011;5412;59.450;18.124;2023-10-31T13:30:10;3.17;;;0.43;;
10721;SDS011;5412;59.450;18.124;2023-10-31T13:32:37;0.30;;;0.30;;
10721;SDS011;5412;59.450;18.124;2023-10-31T13:35:04;0.47;;;0.40;;
10721;SDS011;5412;59.450;18.124;2023-10-31T13:37:30;0.40;;;0.40;;
10721;SDS011;5412;59.450;18.124;2023-10-31T13:39:56;0.20;;;0.20;;
10721;SDS011;5412;59.450;18.124;2023-10-31T13:42:21;0.32;;;0.32;;
10721;SDS011;5412;59.450;18.124;2023-10-31T13:44:47;0.43;;;0.32;;
10721;SDS011;5412;59.450;18.124;2023-10-31T13:47:13;0.35;;;0.28;;
10721;SDS011;5412;59.450;18.124;2023-10-31T13:49:39;0.28;;;0.28;;
10721;SDS011;5412;59.450;18.124;2023-10-31T13:52:05;0.30;;;0.30;;
10721;SDS011;5412;59.450;18.124;2023-10-31T13:54:34;0.32;;;0.32;;
10721;SDS011;5412;59.450;18.124;2023-10-31T13:57:00;0.22;;;0.20;;
10721;SDS011;5412;59.450;18.124;2023-10-31T13:59:26;0.35;;;0.30;;
10721;SDS011;5412;59.450;18.124;2023-10-31T14:01:51;0.10;;;0.10;;
10721;SDS011;5412;59.450;18.124;2023-10-31T14:04:17;0.30;;;0.30;;
10721;SDS011;5412;59.450;18.124;2023-10-31T14:06:44;0.32;;;0.32;;
10721;SDS011;5412;59.450;18.124;2023-10-31T14:09:11;0.43;;;0.43;;
10721;SDS011;5412;59.450;18.124;2023-10-31T14:11:37;0.30;;;0.30;;
10721;SDS011;5412;59.450;18.124;2023-10-31T14:14:03;1.30;;;0.40;;
10721;SDS011;5412;59.450;18.124;2023-10-31T14:16:35;0.20;;;0.20;;
10721;SDS011;5412;59.450;18.124;2023-10-31T14:19:02;0.73;;;0.30;;
10721;SDS011;5412;59.450;18.124;2023-10-31T14:21:28;0.23;;;0.23;;
10721;SDS011;5412;59.450;18.124;2023-10-31T14:23:54;0.83;;;0.30;;
10721;SDS011;5412;59.450;18.124;2023-10-31T14:26:20;0.88;;;0.20;;
10721;SDS011;5412;59.450;18.124;2023-10-31T14:28:46;0.77;;;0.20;;
10721;SDS011;5412;59.450;18.124;2023-10-31T14:31:13;0.30;;;0.30;;
10721;SDS011;5412;59.450;18.124;2023-10-31T14:33:42;0.20;;;0.20;;
10721;SDS011;5412;59.450;18.124;2023-10-31T14:36:08;0.30;;;0.30;;
10721;SDS011;5412;59.450;18.124;2023-10-31T14:38:36;0.73;;;0.30;;
10721;SDS011;5412;59.450;18.124;2023-10-31T14:41:02;0.23;;;0.23;;
10721;SDS011;5412;59.450;18.124;2023-10-31T14:43:29;0.30;;;0.30;;
10721;SDS011;5412;59.450;18.124;2023-10-31T14:45:55;0.30;;;0.30;;